sensor_id;sensor_type;location;lat;lon;timestamp;pressure;altitude;pressure_sealevel;temperature;humidity
61488;BME280;47351;53.326;-6.298;2023-04-07T00:00:18;101802.10;;;7.51;64.66
61488;BME280;47351;53.326;-6.298;2023-04-07T00:03:29;101803.08;;;7.47;64.70
61488;BME280;47351;53.326;-6.298;2023-04-07T00:06:40;101803.42;;;7.45;65.06
61488;BME280;47351;53.326;-6.298;2023-04-07T00:09:51;101805.70;;;7.42;65.03
61488;BME280;47351;53.326;-6.298;2023-04-07T00:13:02;101804.80;;;7.37;64.95
61488;BME280;47351;53.326;-6.298;2023-04-07T00:16:14;101809.30;;;7.29;64.75
61488;BME280;47351;53.326;-6.298;2023-04-07T00:19:25;101809.65;;;7.22;64.89
61488;BME280;47351;53.326;-6.298;2023-04-07T00:22:36;101807.58;;;7.16;64.97
61488;BME280;47351;53.326;-6.298;2023-04-07T00:25:49;101806.80;;;7.12;65.21
61488;BME280;47351;53.326;-6.298;2023-04-07T00:28:59;101800.96;;;7.09;65.40
61488;BME280;47351;53.326;-6.298;2023-04-07T00:32:10;101798.92;;;7.06;65.42
61488;BME280;47351;53.326;-6.298;2023-04-07T00:35:21;101801.39;;;7.03;65.63
61488;BME280;47351;53.326;-6.298;2023-04-07T00:38:32;101801.02;;;7.01;65.67
61488;BME280;47351;53.326;-6.298;2023-04-07T00:41:43;101798.51;;;6.96;65.58
61488;BME280;47351;53.326;-6.298;2023-04-07T00:44:54;101796.36;;;6.91;65.80
61488;BME280;47351;53.326;-6.298;2023-04-07T00:48:05;101794.56;;;6.89;66.09
61488;BME280;47351;53.326;-6.298;2023-04-07T00:51:16;101794.10;;;6.88;66.17
61488;BME280;47351;53.326;-6.298;2023-04-07T00:54:21;101796.79;;;6.85;66.20
61488;BME280;47351;53.326;-6.298;2023-04-07T00:57:33;101798.52;;;6.83;66.38
61488;BME280;47351;53.326;-6.298;2023-04-07T01:00:48;101800.83;;;6.81;66.39
61488;BME280;47351;53.326;-6.298;2023-04-07T01:04:03;101793.27;;;6.77;66.50
61488;BME280;47351;53.326;-6.298;2023-04-07T01:07:10;101791.90;;;6.76;66.69
61488;BME280;47351;53.326;-6.298;2023-04-07T01:10:26;101795.58;;;6.72;66.58
61488;BME280;47351;53.326;-6.298;2023-04-07T01:13:41;101797.73;;;6.67;66.80
61488;BME280;47351;53.326;-6.298;2023-04-07T01:16:52;101794.27;;;6.63;67.20
61488;BME280;47351;53.326;-6.298;2023-04-07T01:20:06;101790.18;;;6.61;67.33
61488;BME280;47351;53.326;-6.298;2023-04-07T01:23:13;101791.31;;;6.57;67.34
61488;BME280;47351;53.326;-6.298;2023-04-07T01:26:22;101794.77;;;6.53;67.49
61488;BME280;47351;53.326;-6.298;2023-04-07T01:29:35;101794.23;;;6.50;67.62
61488;BME280;47351;53.326;-6.298;2023-04-07T01:32:49;101791.06;;;6.48;67.84
61488;BME280;47351;53.326;-6.298;2023-04-07T01:36:01;101789.89;;;6.44;67.82
61488;BME280;47351;53.326;-6.298;2023-04-07T01:39:12;101789.67;;;6.39;67.89
61488;BME280;47351;53.326;-6.298;2023-04-07T01:42:24;101790.91;;;6.34;68.07
61488;BME280;47351;53.326;-6.298;2023-04-07T01:45:38;101793.64;;;6.31;68.21
61488;BME280;47351;53.326;-6.298;2023-04-07T01:48:51;101797.94;;;6.28;68.40
61488;BME280;47351;53.326;-6.298;2023-04-07T01:52:05;101793.66;;;6.23;68.23
61488;BME280;47351;53.326;-6.298;2023-04-07T01:55:17;101792.64;;;6.19;68.56
61488;BME280;47351;53.326;-6.298;2023-04-07T01:58:28;101788.41;;;6.16;68.63
61488;BME280;47351;53.326;-6.298;2023-04-07T02:01:40;101787.92;;;6.13;68.72
61488;BME280;47351;53.326;-6.298;2023-04-07T02:04:53;101792.38;;;6.10;68.85
61488;BME280;47351;53.326;-6.298;2023-04-07T02:07:58;101791.58;;;6.06;68.97
61488;BME280;47351;53.326;-6.298;2023-04-07T02:11:13;101795.55;;;6.02;69.15
61488;BME280;47351;53.326;-6.298;2023-04-07T02:14:26;101794.39;;;5.98;68.98
61488;BME280;47351;53.326;-6.298;2023-04-07T02:17:42;101793.05;;;5.94;69.16
61488;BME280;47351;53.326;-6.298;2023-04-07T02:20:55;101793.80;;;5.91;69.28
61488;BME280;47351;53.326;-6.298;2023-04-07T02:24:07;101792.41;;;5.90;69.59
61488;BME280;47351;53.326;-6.298;2023-04-07T02:27:21;101793.15;;;5.93;69.88
61488;BME280;47351;53.326;-6.298;2023-04-07T02:30:32;101787.98;;;5.96;69.89
61488;BME280;47351;53.326;-6.298;2023-04-07T02:33:43;101790.98;;;5.99;69.80
61488;BME280;47351;53.326;-6.298;2023-04-07T02:36:54;101789.52;;;5.99;69.67
61488;BME280;47351;53.326;-6.298;2023-04-07T02:40:06;101789.69;;;6.00;69.72
61488;BME280;47351;53.326;-6.298;2023-04-07T02:43:18;101789.55;;;5.99;69.65
61488;BME280;47351;53.326;-6.298;2023-04-07T02:46:29;101786.42;;;5.95;69.56
61488;BME280;47351;53.326;-6.298;2023-04-07T02:49:40;101785.90;;;5.92;69.62
61488;BME280;47351;53.326;-6.298;2023-04-07T02:52:54;101788.58;;;5.89;69.65
61488;BME280;47351;53.326;-6.298;2023-04-07T02:56:05;101789.36;;;5.83;69.40
61488;BME280;47351;53.326;-6.298;2023-04-07T02:59:17;101786.44;;;5.76;69.59
61488;BME280;47351;53.326;-6.298;2023-04-07T03:02:27;101786.61;;;5.71;69.84
61488;BME280;47351;53.326;-6.298;2023-04-07T03:05:39;101785.15;;;5.66;70.08
61488;BME280;47351;53.326;-6.298;2023-04-07T03:08:53;101784.88;;;5.62;70.18
61488;BME280;47351;53.326;-6.298;2023-04-07T03:12:04;101785.46;;;5.58;70.46
61488;BME280;47351;53.326;-6.298;2023-04-07T03:15:15;101788.13;;;5.55;70.59
61488;BME280;47351;53.326;-6.298;2023-04-07T03:18:27;101785.27;;;5.50;70.62
61488;BME280;47351;53.326;-6.298;2023-04-07T03:21:38;101788.30;;;5.47;70.77
61488;BME280;47351;53.326;-6.298;2023-04-07T03:24:49;101785.28;;;5.44;71.00
61488;BME280;47351;53.326;-6.298;2023-04-07T03:28:01;101783.16;;;5.42;71.11
61488;BME280;47351;53.326;-6.298;2023-04-07T03:31:11;101787.15;;;5.38;71.15
61488;BME280;47351;53.326;-6.298;2023-04-07T03:34:22;101786.63;;;5.35;71.29
61488;BME280;47351;53.326;-6.298;2023-04-07T03:37:34;101785.95;;;5.31;71.35
61488;BME280;47351;53.326;-6.298;2023-04-07T03:40:45;101785.77;;;5.29;71.33
61488;BME280;47351;53.326;-6.298;2023-04-07T03:43:57;101787.66;;;5.27;71.64
61488;BME280;47351;53.326;-6.298;2023-04-07T03:47:07;101784.78;;;5.22;71.49
61488;BME280;47351;53.326;-6.298;2023-04-07T03:50:18;101786.75;;;5.16;71.41
61488;BME280;47351;53.326;-6.298;2023-04-07T03:53:42;101785.08;;;5.12;71.58
61488;BME280;47351;53.326;-6.298;2023-04-07T03:56:59;101786.75;;;5.08;71.74
61488;BME280;47351;53.326;-6.298;2023-04-07T04:00:12;101786.40;;;5.05;72.10
61488;BME280;47351;53.326;-6.298;2023-04-07T04:03:25;101783.38;;;5.02;71.99
61488;BME280;47351;53.326;-6.298;2023-04-07T04:06:36;101784.58;;;4.97;71.91
61488;BME280;47351;53.326;-6.298;2023-04-07T04:09:47;101783.27;;;4.93;72.00
61488;BME280;47351;53.326;-6.298;2023-04-07T04:12:58;101778.77;;;4.88;72.05
61488;BME280;47351;53.326;-6.298;2023-04-07T04:16:12;101778.13;;;4.84;72.26
61488;BME280;47351;53.326;-6.298;2023-04-07T04:19:23;101779.81;;;4.83;72.64
61488;BME280;47351;53.326;-6.298;2023-04-07T04:22:34;101779.56;;;4.84;72.95
61488;BME280;47351;53.326;-6.298;2023-04-07T04:25:45;101779.66;;;4.85;73.04
61488;BME280;47351;53.326;-6.298;2023-04-07T04:29:10;101779.92;;;4.84;72.97
61488;BME280;47351;53.326;-6.298;2023-04-07T04:32:23;101782.13;;;4.83;73.13
61488;BME280;47351;53.326;-6.298;2023-04-07T04:35:35;101780.54;;;4.82;73.35
61488;BME280;47351;53.326;-6.298;2023-04-07T04:38:49;101777.12;;;4.83;73.41
61488;BME280;47351;53.326;-6.298;2023-04-07T04:42:00;101779.58;;;4.83;73.25
61488;BME280;47351;53.326;-6.298;2023-04-07T04:45:12;101782.70;;;4.85;73.43
61488;BME280;47351;53.326;-6.298;2023-04-07T04:48:23;101783.98;;;4.87;73.51
61488;BME280;47351;53.326;-6.298;2023-04-07T04:51:33;101782.77;;;4.89;73.52
61488;BME280;47351;53.326;-6.298;2023-04-07T04:54:44;101787.71;;;4.95;73.69
61488;BME280;47351;53.326;-6.298;2023-04-07T04:57:55;101786.13;;;5.00;73.80
61488;BME280;47351;53.326;-6.298;2023-04-07T05:01:06;101783.27;;;5.04;73.75
61488;BME280;47351;53.326;-6.298;2023-04-07T05:04:17;101784.12;;;5.07;73.70
61488;BME280;47351;53.326;-6.298;2023-04-07T05:07:30;101782.67;;;5.08;73.50
61488;BME280;47351;53.326;-6.298;2023-04-07T05:10:41;101784.96;;;5.08;73.47
61488;BME280;47351;53.326;-6.298;2023-04-07T05:13:49;101783.60;;;5.07;73.36
61488;BME280;47351;53.326;-6.298;2023-04-07T05:17:01;101783.44;;;5.04;73.18
61488;BME280;47351;53.326;-6.298;2023-04-07T05:20:12;101783.67;;;5.00;73.18
61488;BME280;47351;53.326;-6.298;2023-04-07T05:23:23;101785.16;;;4.96;73.20
61488;BME280;47351;53.326;-6.298;2023-04-07T05:26:33;101788.64;;;4.92;73.19
61488;BME280;47351;53.326;-6.298;2023-04-07T05:29:44;101792.21;;;4.88;73.30
61488;BME280;47351;53.326;-6.298;2023-04-07T05:32:56;101792.61;;;4.84;73.52
61488;BME280;47351;53.326;-6.298;2023-04-07T05:36:07;101789.69;;;4.80;73.36
61488;BME280;47351;53.326;-6.298;2023-04-07T05:39:19;101797.60;;;4.75;73.35
61488;BME280;47351;53.326;-6.298;2023-04-07T05:42:30;101799.08;;;4.71;73.61
61488;BME280;47351;53.326;-6.298;2023-04-07T05:45:40;101799.37;;;4.69;73.81
61488;BME280;47351;53.326;-6.298;2023-04-07T05:48:51;101804.36;;;4.66;73.83
61488;BME280;47351;53.326;-6.298;2023-04-07T05:52:03;101803.39;;;4.64;74.08
61488;BME280;47351;53.326;-6.298;2023-04-07T05:55:14;101804.33;;;4.63;74.14
61488;BME280;47351;53.326;-6.298;2023-04-07T05:58:26;101807.84;;;4.64;74.25
61488;BME280;47351;53.326;-6.298;2023-04-07T06:01:37;101808.30;;;4.64;74.32
61488;BME280;47351;53.326;-6.298;2023-04-07T06:04:48;101804.02;;;4.66;74.25
61488;BME280;47351;53.326;-6.298;2023-04-07T06:08:00;101804.52;;;4.66;74.30
61488;BME280;47351;53.326;-6.298;2023-04-07T06:11:11;101810.63;;;4.68;74.16
61488;BME280;47351;53.326;-6.298;2023-04-07T06:14:22;101810.66;;;4.70;74.35
61488;BME280;47351;53.326;-6.298;2023-04-07T06:17:32;101808.38;;;4.73;74.40
61488;BME280;47351;53.326;-6.298;2023-04-07T06:20:43;101803.55;;;4.74;74.35
61488;BME280;47351;53.326;-6.298;2023-04-07T06:23:54;101806.41;;;4.76;74.42
61488;BME280;47351;53.326;-6.298;2023-04-07T06:27:05;101811.11;;;4.80;74.50
61488;BME280;47351;53.326;-6.298;2023-04-07T06:30:17;101808.08;;;4.83;74.49
61488;BME280;47351;53.326;-6.298;2023-04-07T06:33:28;101816.34;;;4.87;74.54
61488;BME280;47351;53.326;-6.298;2023-04-07T06:36:39;101817.70;;;4.91;74.57
61488;BME280;47351;53.326;-6.298;2023-04-07T06:39:50;101814.14;;;4.94;74.54
61488;BME280;47351;53.326;-6.298;2023-04-07T06:43:06;101813.86;;;4.99;74.52
61488;BME280;47351;53.326;-6.298;2023-04-07T06:46:18;101818.10;;;5.04;74.55
61488;BME280;47351;53.326;-6.298;2023-04-07T06:49:29;101820.21;;;5.10;74.53
61488;BME280;47351;53.326;-6.298;2023-04-07T06:52:39;101820.20;;;5.16;74.61
61488;BME280;47351;53.326;-6.298;2023-04-07T06:55:51;101821.13;;;5.24;74.56
61488;BME280;47351;53.326;-6.298;2023-04-07T06:58:54;101818.59;;;5.30;74.53
61488;BME280;47351;53.326;-6.298;2023-04-07T07:02:05;101819.26;;;5.39;74.59
61488;BME280;47351;53.326;-6.298;2023-04-07T07:05:17;101821.75;;;5.53;74.51
61488;BME280;47351;53.326;-6.298;2023-04-07T07:08:29;101816.50;;;5.69;74.35
61488;BME280;47351;53.326;-6.298;2023-04-07T07:11:37;101816.83;;;5.88;74.28
61488;BME280;47351;53.326;-6.298;2023-04-07T07:14:48;101815.24;;;6.31;74.42
61488;BME280;47351;53.326;-6.298;2023-04-07T07:17:59;101817.96;;;6.77;74.27
61488;BME280;47351;53.326;-6.298;2023-04-07T07:20:54;101823.12;;;7.24;74.55
61488;BME280;47351;53.326;-6.298;2023-04-07T07:23:48;101815.60;;;8.08;74.35
61488;BME280;47351;53.326;-6.298;2023-04-07T07:26:49;101817.65;;;8.98;73.24
61488;BME280;47351;53.326;-6.298;2023-04-07T07:30:00;101810.13;;;9.89;71.29
61488;BME280;47351;53.326;-6.298;2023-04-07T07:33:10;101802.11;;;10.63;69.71
61488;BME280;47351;53.326;-6.298;2023-04-07T07:36:11;101800.13;;;11.71;68.52
61488;BME280;47351;53.326;-6.298;2023-04-07T07:39:01;101796.20;;;12.81;66.85
61488;BME280;47351;53.326;-6.298;2023-04-07T07:41:53;101793.57;;;13.75;64.88
61488;BME280;47351;53.326;-6.298;2023-04-07T07:44:44;101793.88;;;14.52;62.85
61488;BME280;47351;53.326;-6.298;2023-04-07T07:47:35;101793.18;;;15.29;61.48
61488;BME280;47351;53.326;-6.298;2023-04-07T07:50:25;101784.10;;;15.80;60.29
61488;BME280;47351;53.326;-6.298;2023-04-07T07:53:16;101781.29;;;16.52;58.58
61488;BME280;47351;53.326;-6.298;2023-04-07T07:56:07;101786.59;;;17.34;56.82
61488;BME280;47351;53.326;-6.298;2023-04-07T07:58:57;101779.38;;;18.18;55.33
61488;BME280;47351;53.326;-6.298;2023-04-07T08:01:48;101774.39;;;19.02;54.14
61488;BME280;47351;53.326;-6.298;2023-04-07T08:04:39;101773.55;;;19.33;52.54
61488;BME280;47351;53.326;-6.298;2023-04-07T08:07:29;101768.88;;;19.75;51.89
61488;BME280;47351;53.326;-6.298;2023-04-07T08:10:20;101764.64;;;19.85;50.60
61488;BME280;47351;53.326;-6.298;2023-04-07T08:13:13;101760.83;;;19.83;49.06
61488;BME280;47351;53.326;-6.298;2023-04-07T08:16:05;101759.48;;;19.97;48.59
61488;BME280;47351;53.326;-6.298;2023-04-07T08:18:55;101761.86;;;20.33;47.02
61488;BME280;47351;53.326;-6.298;2023-04-07T08:21:46;101758.17;;;20.28;46.77
61488;BME280;47351;53.326;-6.298;2023-04-07T08:24:36;101759.08;;;20.03;46.33
61488;BME280;47351;53.326;-6.298;2023-04-07T08:27:27;101762.14;;;20.33;45.95
61488;BME280;47351;53.326;-6.298;2023-04-07T08:30:18;101766.39;;;20.85;45.40
61488;BME280;47351;53.326;-6.298;2023-04-07T08:33:10;101763.85;;;20.89;45.17
61488;BME280;47351;53.326;-6.298;2023-04-07T08:36:00;101758.98;;;20.84;44.71
61488;BME280;47351;53.326;-6.298;2023-04-07T08:38:51;101761.42;;;21.29;43.70
61488;BME280;47351;53.326;-6.298;2023-04-07T08:41:42;101759.54;;;22.12;42.79
61488;BME280;47351;53.326;-6.298;2023-04-07T08:44:34;101753.92;;;23.31;42.32
61488;BME280;47351;53.326;-6.298;2023-04-07T08:47:26;101752.20;;;23.64;40.63
61488;BME280;47351;53.326;-6.298;2023-04-07T08:50:17;101754.71;;;23.44;40.26
61488;BME280;47351;53.326;-6.298;2023-04-07T08:53:08;101756.86;;;23.12;39.46
61488;BME280;47351;53.326;-6.298;2023-04-07T08:56:00;101754.93;;;23.01;39.41
61488;BME280;47351;53.326;-6.298;2023-04-07T08:58:54;101746.89;;;23.41;38.75
61488;BME280;47351;53.326;-6.298;2023-04-07T09:01:44;101748.23;;;23.83;37.52
61488;BME280;47351;53.326;-6.298;2023-04-07T09:04:36;101744.62;;;23.95;35.94
61488;BME280;47351;53.326;-6.298;2023-04-07T09:07:27;101742.99;;;23.86;34.98
61488;BME280;47351;53.326;-6.298;2023-04-07T09:10:18;101739.58;;;23.88;35.06
61488;BME280;47351;53.326;-6.298;2023-04-07T09:13:08;101740.99;;;24.21;34.71
61488;BME280;47351;53.326;-6.298;2023-04-07T09:16:02;101745.98;;;24.41;34.46
61488;BME280;47351;53.326;-6.298;2023-04-07T09:18:53;101741.73;;;24.27;34.07
61488;BME280;47351;53.326;-6.298;2023-04-07T09:21:48;101743.84;;;23.86;34.09
61488;BME280;47351;53.326;-6.298;2023-04-07T09:24:39;101743.52;;;23.75;34.55
61488;BME280;47351;53.326;-6.298;2023-04-07T09:27:31;101744.48;;;24.20;34.18
61488;BME280;47351;53.326;-6.298;2023-04-07T09:30:23;101743.45;;;24.33;34.04
61488;BME280;47351;53.326;-6.298;2023-04-07T09:33:13;101745.95;;;24.32;33.90
61488;BME280;47351;53.326;-6.298;2023-04-07T09:36:06;101743.21;;;24.44;33.96
61488;BME280;47351;53.326;-6.298;2023-04-07T09:38:57;101742.32;;;24.20;33.66
61488;BME280;47351;53.326;-6.298;2023-04-07T09:42:03;101745.02;;;23.35;34.14
61488;BME280;47351;53.326;-6.298;2023-04-07T09:44:55;101746.57;;;22.77;34.88
61488;BME280;47351;53.326;-6.298;2023-04-07T09:47:48;101744.15;;;22.71;35.56
61488;BME280;47351;53.326;-6.298;2023-04-07T09:50:40;101742.23;;;23.55;35.18
61488;BME280;47351;53.326;-6.298;2023-04-07T09:53:41;101740.65;;;24.51;34.41
61488;BME280;47351;53.326;-6.298;2023-04-07T09:56:32;101738.51;;;25.20;34.01
61488;BME280;47351;53.326;-6.298;2023-04-07T09:59:23;101736.34;;;25.76;33.43
61488;BME280;47351;53.326;-6.298;2023-04-07T10:02:14;101738.56;;;25.69;32.23
61488;BME280;47351;53.326;-6.298;2023-04-07T10:05:05;101743.77;;;25.27;32.18
61488;BME280;47351;53.326;-6.298;2023-04-07T10:07:59;101743.59;;;24.77;33.11
61488;BME280;47351;53.326;-6.298;2023-04-07T10:10:52;101739.70;;;24.99;33.57
61488;BME280;47351;53.326;-6.298;2023-04-07T10:13:43;101740.95;;;25.62;32.88
61488;BME280;47351;53.326;-6.298;2023-04-07T10:16:42;101736.08;;;26.31;31.42
61488;BME280;47351;53.326;-6.298;2023-04-07T10:19:36;101733.39;;;27.15;30.78
61488;BME280;47351;53.326;-6.298;2023-04-07T10:22:27;101734.41;;;27.79;29.94
61488;BME280;47351;53.326;-6.298;2023-04-07T10:25:20;101730.36;;;28.50;29.10
61488;BME280;47351;53.326;-6.298;2023-04-07T10:28:12;101732.41;;;28.60;27.49
61488;BME280;47351;53.326;-6.298;2023-04-07T10:37:42;101719.14;;;31.04;27.47
61488;BME280;47351;53.326;-6.298;2023-04-07T10:40:51;101717.81;;;31.51;25.76
61488;BME280;47351;53.326;-6.298;2023-04-07T10:43:42;101721.92;;;31.73;25.64
61488;BME280;47351;53.326;-6.298;2023-04-07T10:53:05;101716.92;;;31.96;24.10
61488;BME280;47351;53.326;-6.298;2023-04-07T10:55:56;101716.92;;;31.99;24.32
61488;BME280;47351;53.326;-6.298;2023-04-07T10:58:50;101714.10;;;31.97;23.94
61488;BME280;47351;53.326;-6.298;2023-04-07T11:05:06;101704.05;;;32.84;23.70
61488;BME280;47351;53.326;-6.298;2023-04-07T11:07:57;101703.55;;;33.30;22.69
61488;BME280;47351;53.326;-6.298;2023-04-07T11:10:50;101701.46;;;33.36;22.80
61488;BME280;47351;53.326;-6.298;2023-04-07T11:13:41;101709.17;;;33.57;22.41
61488;BME280;47351;53.326;-6.298;2023-04-07T11:16:39;101707.05;;;33.73;22.40
61488;BME280;47351;53.326;-6.298;2023-04-07T11:19:41;101697.58;;;33.89;22.32
61488;BME280;47351;53.326;-6.298;2023-04-07T11:23:04;101695.54;;;33.82;21.75
61488;BME280;47351;53.326;-6.298;2023-04-07T11:26:07;101694.69;;;33.70;22.09
61488;BME280;47351;53.326;-6.298;2023-04-07T11:29:07;101690.00;;;33.67;22.00
61488;BME280;47351;53.326;-6.298;2023-04-07T11:31:58;101695.13;;;32.81;22.63
61488;BME280;47351;53.326;-6.298;2023-04-07T11:34:49;101703.59;;;29.88;24.49
61488;BME280;47351;53.326;-6.298;2023-04-07T11:37:40;101702.16;;;27.77;26.26
61488;BME280;47351;53.326;-6.298;2023-04-07T11:40:34;101709.57;;;26.16;28.03
61488;BME280;47351;53.326;-6.298;2023-04-07T11:43:26;101702.00;;;25.73;28.91
61488;BME280;47351;53.326;-6.298;2023-04-07T11:46:17;101705.69;;;24.81;30.32
61488;BME280;47351;53.326;-6.298;2023-04-07T11:49:14;101708.05;;;24.16;31.23
61488;BME280;47351;53.326;-6.298;2023-04-07T11:52:16;101703.81;;;25.51;29.87
61488;BME280;47351;53.326;-6.298;2023-04-07T11:55:16;101706.80;;;24.74;30.77
61488;BME280;47351;53.326;-6.298;2023-04-07T11:58:10;101706.86;;;23.19;32.62
61488;BME280;47351;53.326;-6.298;2023-04-07T12:01:01;101698.97;;;24.15;32.16
61488;BME280;47351;53.326;-6.298;2023-04-07T12:03:55;101705.26;;;25.20;31.39
61488;BME280;47351;53.326;-6.298;2023-04-07T12:06:47;101696.71;;;26.69;30.10
61488;BME280;47351;53.326;-6.298;2023-04-07T12:09:40;101693.52;;;26.04;30.31
61488;BME280;47351;53.326;-6.298;2023-04-07T12:12:31;101703.25;;;24.16;31.83
61488;BME280;47351;53.326;-6.298;2023-04-07T12:15:22;101707.44;;;22.89;33.48
61488;BME280;47351;53.326;-6.298;2023-04-07T12:18:15;101706.10;;;22.28;34.07
61488;BME280;47351;53.326;-6.298;2023-04-07T12:21:07;101711.01;;;22.11;34.64
61488;BME280;47351;53.326;-6.298;2023-04-07T12:23:58;101712.13;;;22.14;35.33
61488;BME280;47351;53.326;-6.298;2023-04-07T12:26:48;101709.89;;;22.24;34.77
61488;BME280;47351;53.326;-6.298;2023-04-07T12:29:39;101701.95;;;23.28;33.49
61488;BME280;47351;53.326;-6.298;2023-04-07T12:32:30;101704.11;;;24.25;32.98
61488;BME280;47351;53.326;-6.298;2023-04-07T12:35:22;101699.89;;;26.07;31.10
61488;BME280;47351;53.326;-6.298;2023-04-07T12:38:12;101699.39;;;26.00;30.60
61488;BME280;47351;53.326;-6.298;2023-04-07T12:41:03;101703.55;;;25.24;31.82
61488;BME280;47351;53.326;-6.298;2023-04-07T12:43:54;101696.89;;;24.60;31.83
61488;BME280;47351;53.326;-6.298;2023-04-07T12:46:45;101701.84;;;25.31;30.83
61488;BME280;47351;53.326;-6.298;2023-04-07T12:49:35;101692.81;;;27.34;29.20
61488;BME280;47351;53.326;-6.298;2023-04-07T12:52:26;101688.61;;;28.98;27.81
61488;BME280;47351;53.326;-6.298;2023-04-07T12:55:16;101689.94;;;27.86;28.25
61488;BME280;47351;53.326;-6.298;2023-04-07T12:58:07;101690.64;;;26.12;29.76
61488;BME280;47351;53.326;-6.298;2023-04-07T13:00:58;101691.27;;;24.53;31.10
61488;BME280;47351;53.326;-6.298;2023-04-07T13:03:49;101697.17;;;23.23;32.70
61488;BME280;47351;53.326;-6.298;2023-04-07T13:06:41;101703.73;;;21.94;34.19
61488;BME280;47351;53.326;-6.298;2023-04-07T13:09:31;101708.65;;;20.80;35.78
61488;BME280;47351;53.326;-6.298;2023-04-07T13:12:22;101710.42;;;19.96;36.76
61488;BME280;47351;53.326;-6.298;2023-04-07T13:15:13;101713.27;;;19.29;37.12
61488;BME280;47351;53.326;-6.298;2023-04-07T13:18:04;101711.67;;;18.83;37.93
61488;BME280;47351;53.326;-6.298;2023-04-07T13:20:55;101712.47;;;18.69;38.74
61488;BME280;47351;53.326;-6.298;2023-04-07T13:24:05;101709.84;;;18.66;39.04
61488;BME280;47351;53.326;-6.298;2023-04-07T13:26:56;101706.51;;;18.83;39.00
61488;BME280;47351;53.326;-6.298;2023-04-07T13:29:47;101708.41;;;19.07;38.67
61488;BME280;47351;53.326;-6.298;2023-04-07T13:32:38;101707.48;;;19.72;37.83
61488;BME280;47351;53.326;-6.298;2023-04-07T13:35:29;101700.35;;;20.81;36.58
61488;BME280;47351;53.326;-6.298;2023-04-07T13:38:24;101695.30;;;20.81;36.06
61488;BME280;47351;53.326;-6.298;2023-04-07T13:41:14;101692.93;;;20.25;36.31
61488;BME280;47351;53.326;-6.298;2023-04-07T13:44:05;101692.27;;;19.85;36.79
61488;BME280;47351;53.326;-6.298;2023-04-07T13:46:56;101691.67;;;19.71;36.84
61488;BME280;47351;53.326;-6.298;2023-04-07T13:49:47;101691.45;;;19.35;36.93
61488;BME280;47351;53.326;-6.298;2023-04-07T13:52:38;101688.91;;;18.90;37.31
61488;BME280;47351;53.326;-6.298;2023-04-07T13:55:33;101693.33;;;18.53;37.29
61488;BME280;47351;53.326;-6.298;2023-04-07T13:58:25;101690.05;;;18.36;37.61
61488;BME280;47351;53.326;-6.298;2023-04-07T14:01:22;101692.05;;;18.62;37.32
61488;BME280;47351;53.326;-6.298;2023-04-07T14:04:16;101684.59;;;19.38;36.94
61488;BME280;47351;53.326;-6.298;2023-04-07T14:07:08;101682.38;;;21.47;34.66
61488;BME280;47351;53.326;-6.298;2023-04-07T14:09:58;101680.33;;;21.93;33.93
61488;BME280;47351;53.326;-6.298;2023-04-07T14:12:49;101676.63;;;21.84;33.29
61488;BME280;47351;53.326;-6.298;2023-04-07T14:15:40;101676.23;;;21.68;33.40
61488;BME280;47351;53.326;-6.298;2023-04-07T14:18:30;101676.60;;;21.54;33.21
61488;BME280;47351;53.326;-6.298;2023-04-07T14:21:21;101679.40;;;21.27;33.07
61488;BME280;47351;53.326;-6.298;2023-04-07T14:24:12;101680.64;;;20.97;33.39
61488;BME280;47351;53.326;-6.298;2023-04-07T14:27:02;101677.27;;;21.17;33.84
61488;BME280;47351;53.326;-6.298;2023-04-07T14:29:53;101670.60;;;21.02;33.93
61488;BME280;47351;53.326;-6.298;2023-04-07T14:32:46;101669.18;;;20.66;33.80
61488;BME280;47351;53.326;-6.298;2023-04-07T14:35:37;101671.55;;;20.62;33.87
61488;BME280;47351;53.326;-6.298;2023-04-07T14:38:27;101669.85;;;20.65;33.77
61488;BME280;47351;53.326;-6.298;2023-04-07T14:41:18;101670.98;;;20.45;33.63
61488;BME280;47351;53.326;-6.298;2023-04-07T14:44:09;101668.88;;;20.26;33.91
61488;BME280;47351;53.326;-6.298;2023-04-07T14:47:00;101667.71;;;19.83;34.08
61488;BME280;47351;53.326;-6.298;2023-04-07T14:49:51;101670.18;;;19.65;34.29
61488;BME280;47351;53.326;-6.298;2023-04-07T14:52:42;101660.52;;;19.84;34.22
61488;BME280;47351;53.326;-6.298;2023-04-07T14:55:32;101657.64;;;19.99;34.20
61488;BME280;47351;53.326;-6.298;2023-04-07T14:58:24;101657.46;;;19.83;34.68
61488;BME280;47351;53.326;-6.298;2023-04-07T15:01:18;101658.80;;;19.52;34.87
61488;BME280;47351;53.326;-6.298;2023-04-07T15:04:11;101659.60;;;19.22;35.15
61488;BME280;47351;53.326;-6.298;2023-04-07T15:07:02;101657.95;;;18.82;35.33
61488;BME280;47351;53.326;-6.298;2023-04-07T15:09:53;101661.89;;;18.30;35.72
61488;BME280;47351;53.326;-6.298;2023-04-07T15:12:44;101667.77;;;17.95;36.05
61488;BME280;47351;53.326;-6.298;2023-04-07T15:15:37;101663.77;;;17.95;36.26
61488;BME280;47351;53.326;-6.298;2023-04-07T15:18:27;101660.23;;;17.88;36.75
61488;BME280;47351;53.326;-6.298;2023-04-07T15:21:18;101661.35;;;17.93;36.47
61488;BME280;47351;53.326;-6.298;2023-04-07T15:24:09;101664.40;;;17.79;36.51
61488;BME280;47351;53.326;-6.298;2023-04-07T15:27:02;101662.95;;;17.73;36.83
61488;BME280;47351;53.326;-6.298;2023-04-07T15:29:53;101660.20;;;17.92;37.20
61488;BME280;47351;53.326;-6.298;2023-04-07T15:32:56;101658.27;;;18.09;37.05
61488;BME280;47351;53.326;-6.298;2023-04-07T15:35:48;101659.80;;;18.16;36.84
61488;BME280;47351;53.326;-6.298;2023-04-07T15:38:39;101658.21;;;18.10;36.50
61488;BME280;47351;53.326;-6.298;2023-04-07T15:41:30;101656.94;;;17.81;36.29
61488;BME280;47351;53.326;-6.298;2023-04-07T15:44:21;101666.75;;;17.39;36.68
61488;BME280;47351;53.326;-6.298;2023-04-07T15:47:12;101664.96;;;17.05;36.95
61488;BME280;47351;53.326;-6.298;2023-04-07T15:50:02;101667.95;;;16.82;37.40
61488;BME280;47351;53.326;-6.298;2023-04-07T15:52:54;101666.58;;;16.88;37.89
61488;BME280;47351;53.326;-6.298;2023-04-07T15:55:45;101663.24;;;16.92;37.86